DTMBDTKA

Guest
Details From DTMB - Monastir Habib Bourguiba Intl
To DTKA - TABARKA 7 NOVEMBRE
Flight Number -
Tags generated
Created
Modified
Stats Distance 117 nm / 216 km
Max Altitude 3,000 ft / 914 m
Waypoints 4
Social Downloads 0
Likes 0
Share VATSIM

Download

Looking for another format? Having issues loading an existing format? Contact us
Advertisement - Login to hide

Notes

Basic altitude profile: - Ascent Rate: 2500ft/min - Ascent Speed: 250kts - Cruise Altitude: 35000ft - Cruise Speed: 420kts - Descent Rate: 1500ft/min - Descent Speed: 250kts Options: - Use NATs: yes - Use PACOTS: yes - Use low airways: yes - Use high airways: yes

Route

DTMB BARIM V310 TBK DTKA

ID Type Via Altitude Latitude Longitude Leg Dist Tot Dist Heading (true) Name
O DTMB APT - 0 ft / 0 m 35.75784˚ 10.75403˚ - 0 nm - Monastir Habib Bourguiba Intl
BARIM FIX - 3,000 ft / 914 m 36.83056˚ 9.11000˚ 102 nm 102 nm 309° / 309° -
TBK VOR V310 (AWY-LO) 1,500 ft / 457 m 36.97817˚ 8.88358˚ 14 nm 116 nm 309° / 309° TABARKA VOR-DME
O DTKA APT - 0 ft / 0 m 36.98017˚ 8.87512˚ 0 nm 116 nm 286° / 286° TABARKA 7 NOVEMBRE

Altitude Profile

Advertisement - Login to hide

DTMB

Details ICAO DTMB (MIR)
Name Monastir Habib Bourguiba Intl
Region Tunisia
Timezone Africa/Tunis (UTC+1.0)
Stats Elevation 9 ft / 3 m (AMSL)
Location 35.757843° 10.754025°
Runways 1
Magnetic Variation 2.432° E

METAR

DTMB 112030Z 16015KT 8000 NSC 15/04 Q1013

Decode

TAF

TAF TAF DTMB 111724Z 1118/1218 18017G30KT 8000 FEW026

Decode

Departure Runways

ID Width Length Bearing (true) Bearing (mag) Surface Threshold Offset Overrun Length
07 148 ft / 45 m 9,627 ft / 2,934 m 73.54° 71.11° Asphalt 0 ft / 0 m 164 ft / 50 m
25 148 ft / 45 m 9,627 ft / 2,934 m 253.56° 251.13° Asphalt 0 ft / 0 m 164 ft / 50 m

DTKA

Details ICAO DTKA (TBJ)
Name TABARKA 7 NOVEMBRE
Region Tunisia
Timezone Africa/Tunis (UTC+1.0)
Stats Elevation 230 ft / 70 m (AMSL)
Location 36.980165° 8.875125°
Runways 1
Magnetic Variation 2.173° E

METAR

DTKA 112100Z 20010KT 9999 FEW020 SCT200 18/05 Q1007 NOSIG

Decode

TAF

Not found

Destination Runways

ID Width Length Bearing (true) Bearing (mag) Surface Threshold Offset Overrun Length
09 148 ft / 45 m 9,379 ft / 2,859 m 93.06° 90.89° Asphalt 0 ft / 0 m 230 ft / 70 m
27 148 ft / 45 m 9,379 ft / 2,859 m 273.08° 270.91° Asphalt 0 ft / 0 m 0 ft / 0 m

Approach Navaids

Runway Type Ident Frequency Range Bearing (true) Bearing (mag) Slope Elevation
27 Localiser TAB 110.70 MHz 18 nm / 33 km 273.07° 270.89° - 230 ft / 70 m (AMSL)
27 Glidescope TAB 110.70 MHz 10 nm / 19 km 273.07° 270.89° 3.00° 230 ft / 70 m (AMSL)
27 DME TAB 110.70 MHz 18 nm / 33 km - - - 252 ft / 77 m (AMSL)